Time;durP1;ratioP1;P1;durP2;ratioP2;P2;SDS_P1;SDS_P2;PMS_P1;PMS_P2;Temp;Humidity;BMP_temperature;BMP_pressure;BME280_temperature;BME280_humidity;BME280_pressure;Samples;Min_cycle;Max_cycle;Signal;HPM_P1;HPM_P2
2022/08/10 00:01:19;;;;;;;;;;;;;;;18.39;100.00;100281.72;5074105;28;19946;-80
2022/08/10 00:03:46;;;;;;;;;;;;;;;18.29;100.00;100279.97;5073824;28;19925;-80
2022/08/10 00:06:13;;;;;;;;;;;;;;;18.19;100.00;100266.91;5072727;28;19935;-80
2022/08/10 00:08:40;;;;;;;;;;;;;;;18.00;100.00;100265.03;5072697;28;19963;-80
2022/08/10 00:11:07;;;;;;;;;;;;;;;17.32;100.00;100267.97;5072598;28;20034;-80
2022/08/10 00:13:35;;;;;;;;;;;;;;;17.24;100.00;100266.53;5039314;28;20102;-80
2022/08/10 00:16:03;;;;;;;;;;;;;;;17.53;100.00;100277.97;5072844;28;19931;-80
2022/08/10 00:18:30;;;;;;;;;;;;;;;17.77;100.00;100273.72;5072922;28;19924;-80
2022/08/10 00:20:57;;;;;;;;;;;;;;;17.85;100.00;100272.28;5072405;28;19978;-80
2022/08/10 00:23:24;;;;;;;;;;;;;;;17.80;100.00;100270.78;5056266;28;19970;-80
2022/08/10 00:25:51;;;;;;;;;;;;;;;17.82;100.00;100268.34;5039319;28;19938;-80
2022/08/10 00:28:18;;;;;;;;;;;;;;;17.76;100.00;100274.97;5039291;28;20379;-80
2022/08/10 00:30:45;;;;;;;;;;;;;;;17.03;100.00;100269.88;5073783;28;19935;-80
2022/08/10 00:33:12;;;;;;;;;;;;;;;16.95;100.00;100271.25;5073923;28;19925;-80
2022/08/10 00:35:39;;;;;;;;;;;;;;;16.92;100.00;100268.53;5073699;28;19924;-80
2022/08/10 00:38:08;;;;;;;;;;;;;;;16.80;100.00;100272.81;5056302;28;19924;-80
2022/08/10 00:40:35;;;;;;;;;;;;;;;17.19;100.00;100278.34;5055734;28;19928;-80
2022/08/10 00:43:07;;;;;;;;;;;;;;;17.24;100.00;100272.19;5073512;28;19932;-80
2022/08/10 00:45:34;;;;;;;;;;;;;;;16.83;100.00;100271.13;5058447;28;19931;-80
2022/08/10 00:48:01;;;;;;;;;;;;;;;16.07;100.00;100281.53;5042838;28;19925;-80
2022/08/10 00:50:29;;;;;;;;;;;;;;;16.19;100.00;100269.63;5058976;28;20387;-80
2022/08/10 00:52:56;;;;;;;;;;;;;;;16.43;100.00;100275.19;5026171;28;19924;-80
2022/08/10 00:55:23;;;;;;;;;;;;;;;16.90;100.00;100263.31;5042807;28;19928;-80
2022/08/10 00:57:51;;;;;;;;;;;;;;;16.90;100.00;100256.88;5059058;28;19925;-79
2022/08/10 01:00:18;;;;;;;;;;;;;;;17.14;100.00;100259.13;5042729;28;19924;-80
2022/08/10 01:02:45;;;;;;;;;;;;;;;17.27;100.00;100260.00;5059307;28;19968;-80
2022/08/10 01:05:13;;;;;;;;;;;;;;;17.17;100.00;100257.44;5058991;28;19925;-80
2022/08/10 01:07:49;;;;;;;;;;;;;;;16.94;100.00;100260.41;5042093;28;19967;-80
2022/08/10 01:10:40;;;;;;;;;;;;;;;17.12;100.00;100255.94;5058958;28;19973;-79
2022/08/10 01:13:25;;;;;;;;;;;;;;;16.22;100.00;100263.09;5042564;28;19974;-79
2022/08/10 01:16:00;;;;;;;;;;;;;;;16.88;100.00;100259.31;5077224;28;19935;-79
2022/08/10 01:18:26;;;;;;;;;;;;;;;16.94;100.00;100257.56;5042640;28;19977;-79
2022/08/10 01:20:53;;;;;;;;;;;;;;;16.98;100.00;100259.06;5025249;28;20302;-79
2022/08/10 01:23:39;;;;;;;;;;;;;;;16.85;100.00;100260.19;5058663;28;19932;-80
2022/08/10 01:26:25;;;;;;;;;;;;;;;16.82;100.00;100253.41;5042091;28;19925;-80
2022/08/10 01:29:07;;;;;;;;;;;;;;;16.91;100.00;100253.59;5058797;28;19960;-79
2022/08/10 01:31:39;;;;;;;;;;;;;;;16.40;100.00;100257.13;5058774;28;20011;-79
2022/08/10 01:34:08;;;;;;;;;;;;;;;16.65;100.00;100259.44;5075211;28;20344;-79
2022/08/10 01:36:42;;;;;;;;;;;;;;;16.86;100.00;100250.50;5076029;28;19924;-79
2022/08/10 01:39:13;;;;;;;;;;;;;;;16.79;100.00;100253.47;5058243;28;20406;-79
2022/08/10 01:41:43;;;;;;;;;;;;;;;15.50;100.00;100260.44;5074628;28;19925;-80
2022/08/10 01:44:12;;;;;;;;;;;;;;;16.33;100.00;100251.59;5058216;28;20013;-80
2022/08/10 01:46:41;;;;;;;;;;;;;;;15.60;100.00;100260.25;5025534;28;19924;-80
2022/08/10 01:49:10;;;;;;;;;;;;;;;16.31;100.00;100253.28;5075052;28;20364;-80
2022/08/10 01:51:39;;;;;;;;;;;;;;;16.63;100.00;100247.81;5058243;28;20335;-80
2022/08/10 01:54:11;;;;;;;;;;;;;;;16.52;100.00;100253.69;5041378;28;20010;-80
2022/08/10 01:56:41;;;;;;;;;;;;;;;16.54;100.00;100253.25;5058085;28;19925;-80
2022/08/10 01:59:13;;;;;;;;;;;;;;;16.61;100.00;100250.25;5058232;28;20324;-80
2022/08/10 02:01:42;;;;;;;;;;;;;;;16.80;100.00;100246.59;5076164;28;19925;-79
2022/08/10 02:04:11;;;;;;;;;;;;;;;16.79;100.00;100245.00;5058187;28;20011;-80
2022/08/10 02:06:43;;;;;;;;;;;;;;;16.46;100.00;100246.16;5057730;28;19924;-79
2022/08/10 02:09:11;;;;;;;;;;;;;;;16.71;100.00;100255.66;5075728;28;19974;-79
2022/08/10 02:11:39;;;;;;;;;;;;;;;16.57;100.00;100244.69;5074121;28;19964;-80
2022/08/10 02:14:07;;;;;;;;;;;;;;;16.56;100.00;100242.28;5057852;28;19928;-80
2022/08/10 02:16:36;;;;;;;;;;;;;;;16.15;100.00;100260.44;5041298;28;19967;-80
2022/08/10 02:19:04;;;;;;;;;;;;;;;16.33;100.00;100250.84;5057684;28;19974;-80
2022/08/10 02:21:32;;;;;;;;;;;;;;;16.31;100.00;100259.72;5043790;28;19989;-80
2022/08/10 02:24:00;;;;;;;;;;;;;;;16.55;100.00;100249.97;5057558;28;19924;-80
2022/08/10 02:26:28;;;;;;;;;;;;;;;16.66;100.00;100249.75;5074038;28;19932;-80
2022/08/10 02:28:55;;;;;;;;;;;;;;;16.76;100.00;100246.69;5091269;28;19928;-80
2022/08/10 02:31:23;;;;;;;;;;;;;;;16.65;100.00;100248.13;5074048;28;19972;-80
2022/08/10 02:33:52;;;;;;;;;;;;;;;16.40;100.00;100253.50;5073984;28;19925;-80
2022/08/10 02:36:21;;;;;;;;;;;;;;;16.11;100.00;100253.28;5057402;28;19932;-79
2022/08/10 02:38:50;;;;;;;;;;;;;;;15.91;100.00;100258.09;5074928;28;19925;-80
2022/08/10 02:41:29;;;;;;;;;;;;;;;16.08;100.00;100257.72;5073999;28;19925;-80
2022/08/10 02:44:31;;;;;;;;;;;;;;;16.17;100.00;100254.38;5073742;28;19924;-80
2022/08/10 02:47:18;;;;;;;;;;;;;;;16.31;100.00;100250.47;5016330;28;19929;-80
2022/08/10 02:49:48;;;;;;;;;;;;;;;16.32;100.00;100249.22;5016256;28;20024;-80
2022/08/10 02:52:19;;;;;;;;;;;;;;;16.51;100.00;100256.94;5016365;28;19925;-79
2022/08/10 02:54:50;;;;;;;;;;;;;;;16.36;100.00;100247.91;5000393;28;20020;-79
2022/08/10 02:57:22;;;;;;;;;;;;;;;16.37;100.00;100241.06;5000188;28;19925;-79
2022/08/10 02:59:51;;;;;;;;;;;;;;;15.41;100.00;100258.16;5016612;28;19925;-79
2022/08/10 03:02:28;;;;;;;;;;;;;;;15.87;100.00;100255.31;5015116;28;20060;-80
2022/08/10 03:04:59;;;;;;;;;;;;;;;16.24;100.00;100243.75;5031381;28;19936;-80
2022/08/10 03:07:28;;;;;;;;;;;;;;;16.32;100.00;100244.38;5014599;28;20032;-80
2022/08/10 03:09:55;;;;;;;;;;;;;;;16.28;100.00;100244.44;5031941;28;20024;-80
2022/08/10 03:12:23;;;;;;;;;;;;;;;16.13;100.00;100248.78;5015584;28;20020;-80
2022/08/10 03:14:50;;;;;;;;;;;;;;;15.86;100.00;100250.13;5015301;28;20357;-80
2022/08/10 03:17:18;;;;;;;;;;;;;;;15.99;100.00;100246.22;5015539;28;19960;-80
2022/08/10 03:19:46;;;;;;;;;;;;;;;15.71;100.00;100254.41;5015526;28;19932;-80
2022/08/10 03:22:14;;;;;;;;;;;;;;;15.81;100.00;100247.81;5072914;28;19925;-80
2022/08/10 03:24:43;;;;;;;;;;;;;;;15.54;100.00;100250.69;5073209;28;20429;-80
2022/08/10 03:27:10;;;;;;;;;;;;;;;15.95;100.00;100245.50;5056718;28;20382;-80
2022/08/10 03:29:37;;;;;;;;;;;;;;;16.15;100.00;100246.34;5056168;28;19931;-80
2022/08/10 03:32:05;;;;;;;;;;;;;;;15.85;100.00;100249.34;5040103;28;19928;-80
2022/08/10 03:34:33;;;;;;;;;;;;;;;15.84;100.00;100249.78;5073334;28;19929;-80
2022/08/10 03:37:00;;;;;;;;;;;;;;;15.95;100.00;100251.16;5073154;28;19925;-80
2022/08/10 03:39:27;;;;;;;;;;;;;;;15.49;100.00;100254.03;5073180;28;20453;-80
2022/08/10 03:41:57;;;;;;;;;;;;;;;15.90;100.00;100251.66;5073179;28;19929;-80
2022/08/10 03:44:27;;;;;;;;;;;;;;;15.85;100.00;100249.34;5073172;28;19929;-79
2022/08/10 03:46:57;;;;;;;;;;;;;;;15.84;100.00;100252.59;5072932;28;20376;-79
2022/08/10 03:49:25;;;;;;;;;;;;;;;15.50;100.00;100249.16;5072945;28;19974;-79
2022/08/10 03:51:53;;;;;;;;;;;;;;;15.83;100.00;100257.41;5074202;28;20011;-80
2022/08/10 03:54:20;;;;;;;;;;;;;;;15.59;100.00;100260.69;5074224;28;19925;-80
2022/08/10 03:56:47;;;;;;;;;;;;;;;15.94;100.00;100257.22;5072743;28;19971;-80
2022/08/10 03:59:15;;;;;;;;;;;;;;;15.61;100.00;100256.22;5072145;28;19928;-79
2022/08/10 04:01:43;;;;;;;;;;;;;;;15.24;100.00;100270.47;5072716;28;19924;-79
2022/08/10 04:04:10;;;;;;;;;;;;;;;15.78;100.00;100266.38;5072534;28;19928;-79
2022/08/10 04:06:37;;;;;;;;;;;;;;;15.95;100.00;100253.97;5072687;28;20291;-79
2022/08/10 04:09:05;;;;;;;;;;;;;;;16.07;100.00;100255.34;5056101;28;19929;-79
2022/08/10 04:11:32;;;;;;;;;;;;;;;15.95;100.00;100259.59;5072825;28;20025;-79
2022/08/10 04:13:59;;;;;;;;;;;;;;;15.95;100.00;100259.59;5073784;28;19932;-80
2022/08/10 04:16:26;;;;;;;;;;;;;;;16.17;100.00;100265.66;5055765;28;19963;-80
2022/08/10 04:18:53;;;;;;;;;;;;;;;16.21;100.00;100253.06;5072831;28;20388;-80
2022/08/10 04:21:23;;;;;;;;;;;;;;;15.92;100.00;100259.66;5092663;28;19964;-80
2022/08/10 04:23:51;;;;;;;;;;;;;;;15.45;100.00;100264.53;5060334;28;20286;-79
2022/08/10 04:26:21;;;;;;;;;;;;;;;15.78;100.00;100252.28;5059868;28;19932;-80
2022/08/10 04:28:48;;;;;;;;;;;;;;;15.89;100.00;100255.69;5059753;28;20024;-80
2022/08/10 04:31:15;;;;;;;;;;;;;;;15.31;100.00;100247.84;5059537;28;19928;-79
2022/08/10 04:33:45;;;;;;;;;;;;;;;15.61;100.00;100250.59;5059311;28;19924;-79
2022/08/10 04:36:15;;;;;;;;;;;;;;;15.87;100.00;100251.72;5043564;28;19951;-79
2022/08/10 04:38:43;;;;;;;;;;;;;;;15.70;100.00;100248.00;5059784;28;20385;-79
2022/08/10 04:41:10;;;;;;;;;;;;;;;15.76;100.00;100245.47;5077108;28;19932;-79
2022/08/10 04:43:38;;;;;;;;;;;;;;;15.16;100.00;100248.50;5042941;28;19968;-79
2022/08/10 04:46:04;;;;;;;;;;;;;;;14.70;100.00;100252.00;5042478;28;20019;-79
2022/08/10 04:48:32;;;;;;;;;;;;;;;15.28;100.00;100254.31;5059358;28;19932;-79
2022/08/10 04:51:00;;;;;;;;;;;;;;;15.68;100.00;100256.09;5059385;28;19925;-79
2022/08/10 04:53:27;;;;;;;;;;;;;;;15.86;100.00;100250.91;5059347;28;20431;-79
2022/08/10 04:55:54;;;;;;;;;;;;;;;16.01;100.00;100257.88;5059075;28;19925;-79
2022/08/10 04:58:21;;;;;;;;;;;;;;;15.69;100.00;100256.91;5059597;28;19986;-79
2022/08/10 05:00:48;;;;;;;;;;;;;;;16.00;100.00;100255.50;5058918;28;19928;-79
2022/08/10 05:03:15;;;;;;;;;;;;;;;15.38;100.00;100250.59;5075736;28;20550;-79
2022/08/10 05:05:42;;;;;;;;;;;;;;;15.67;100.00;100253.69;5076814;28;19924;-79
2022/08/10 05:08:09;;;;;;;;;;;;;;;15.94;100.00;100260.84;5077042;28;19924;-79
2022/08/10 05:10:35;;;;;;;;;;;;;;;15.72;100.00;100256.03;5059064;28;19929;-79
2022/08/10 05:13:02;;;;;;;;;;;;;;;16.13;100.00;100254.44;5058859;28;20435;-79
2022/08/10 05:15:30;;;;;;;;;;;;;;;15.62;100.00;100246.53;5075103;28;19977;-79
2022/08/10 05:17:57;;;;;;;;;;;;;;;15.76;100.00;100253.94;5041973;28;19924;-79
2022/08/10 05:20:24;;;;;;;;;;;;;;;16.03;100.00;100243.34;5041691;28;19925;-79
2022/08/10 05:22:51;;;;;;;;;;;;;;;16.01;100.00;100243.78;5076227;28;19924;-79
2022/08/10 05:25:19;;;;;;;;;;;;;;;16.09;100.00;100242.44;5074928;28;19928;-79
2022/08/10 05:27:46;;;;;;;;;;;;;;;16.22;100.00;100239.78;5058575;28;19966;-79
2022/08/10 05:30:14;;;;;;;;;;;;;;;16.24;100.00;100238.09;5040918;28;20284;-79
2022/08/10 05:32:41;;;;;;;;;;;;;;;16.51;100.00;100234.38;5041497;28;20011;-79
2022/08/10 05:35:08;;;;;;;;;;;;;;;16.66;100.00;100230.78;5041855;28;19925;-79
2022/08/10 05:37:36;;;;;;;;;;;;;;;16.70;100.00;100237.16;5058489;28;19974;-79
2022/08/10 05:40:04;;;;;;;;;;;;;;;16.72;100.00;100236.72;5076023;28;20360;-79
2022/08/10 05:42:31;;;;;;;;;;;;;;;16.86;100.00;100233.56;5058319;28;19924;-79
2022/08/10 05:44:58;;;;;;;;;;;;;;;16.77;100.00;100241.81;5058040;28;19924;-79
2022/08/10 05:47:25;;;;;;;;;;;;;;;16.72;100.00;100233.91;5041195;28;19971;-79
2022/08/10 05:49:52;;;;;;;;;;;;;;;16.19;100.00;100244.22;5057913;28;19925;-80
2022/08/10 05:52:20;;;;;;;;;;;;;;;16.36;100.00;100244.31;5041352;28;20395;-79
2022/08/10 05:54:49;;;;;;;;;;;;;;;16.73;100.00;100246.75;5058214;28;19931;-79
2022/08/10 05:57:16;;;;;;;;;;;;;;;17.10;100.00;100244.28;5058213;28;19963;-80
2022/08/10 05:59:50;;;;;;;;;;;;;;;17.33;100.00;100237.66;5041166;28;19925;-80
2022/08/10 06:02:21;;;;;;;;;;;;;;;17.48;100.00;100241.75;5057812;28;20352;-79
2022/08/10 06:04:50;;;;;;;;;;;;;;;17.66;100.00;100244.94;5041345;28;19931;-79
2022/08/10 06:07:18;;;;;;;;;;;;;;;17.62;100.00;100238.56;5057966;28;19929;-79
2022/08/10 06:09:48;;;;;;;;;;;;;;;17.93;100.00;100234.88;5057782;28;20362;-79
2022/08/10 06:12:16;;;;;;;;;;;;;;;18.00;100.00;100233.91;5057473;28;19924;-79
2022/08/10 06:15:00;;;;;;;;;;;;;;;18.27;100.00;100231.53;5041053;28;19931;-79
2022/08/10 06:17:29;;;;;;;;;;;;;;;18.44;100.00;100227.41;5057999;28;19931;-79
2022/08/10 06:19:57;;;;;;;;;;;;;;;18.55;100.00;100230.75;5057791;28;19925;-79
2022/08/10 06:22:25;;;;;;;;;;;;;;;18.70;100.00;100231.09;5065731;28;19931;-79
2022/08/10 06:24:56;;;;;;;;;;;;;;;18.78;100.00;100235.31;5073959;28;20268;-79
2022/08/10 06:27:44;;;;;;;;;;;;;;;18.83;100.00;100238.34;5057721;28;19925;-79
2022/08/10 06:30:11;;;;;;;;;;;;;;;18.34;100.00;100237.00;5073819;28;20351;-79
2022/08/10 06:32:39;;;;;;;;;;;;;;;18.50;100.00;100234.13;5073947;28;20245;-79
2022/08/10 06:35:07;;;;;;;;;;;;;;;18.98;100.00;100242.34;5057253;28;19936;-80
2022/08/10 06:37:35;;;;;;;;;;;;;;;19.28;100.00;100238.94;5074233;28;19978;-80
2022/08/10 06:40:02;;;;;;;;;;;;;;;19.57;100.00;100233.13;5075122;28;20015;-80
2022/08/10 06:42:39;;;;;;;;;;;;;;;19.54;100.00;100234.84;5039172;28;19930;-80
2022/08/10 06:45:13;;;;;;;;;;;;;;;19.54;100.00;100240.50;5073476;28;20376;-81
2022/08/10 06:47:40;;;;;;;;;;;;;;;19.78;100.00;100226.72;5073523;28;19931;-81
2022/08/10 06:50:29;;;;;;;;;;;;;;;19.90;100.00;100240.09;5073431;28;19963;-83
2022/08/10 06:52:59;;;;;;;;;;;;;;;20.21;100.00;100237.38;5057101;28;19939;-83
2022/08/10 06:55:26;;;;;;;;;;;;;;;20.34;100.00;100229.59;5056906;28;20421;-82
2022/08/10 06:57:53;;;;;;;;;;;;;;;20.53;100.00;100234.16;5073464;28;20433;-82
2022/08/10 07:00:25;;;;;;;;;;;;;;;20.69;100.00;100228.25;5073407;28;19928;-82
2022/08/10 07:02:57;;;;;;;;;;;;;;;20.75;100.00;100232.09;5090503;28;20282;-82
2022/08/10 07:05:26;;;;;;;;;;;;;;;21.34;100.00;100226.06;5073741;28;20378;-83
2022/08/10 07:07:58;;;;;;;;;;;;;;;22.52;100.00;100215.59;5056629;28;20394;-83
2022/08/10 07:10:25;;;;;;;;;;;;;;;23.93;100.00;100215.91;5072959;28;19925;-83
2022/08/10 07:12:58;;;;;;;;;;;;;;;25.34;100.00;100197.47;5039889;28;19972;-83
2022/08/10 07:15:26;;;;;;;;;;;;;;;26.46;100.00;100184.13;5072221;28;19928;-83
2022/08/10 07:17:53;;;;;;;;;;;;;;;27.69;100.00;100181.69;5056530;28;19924;-83
2022/08/10 07:20:21;;;;;;;;;;;;;;;28.76;100.00;100182.34;5072664;28;19924;-83
2022/08/10 07:22:50;;;;;;;;;;;;;;;29.40;100.00;100174.19;5072947;28;19924;-83
2022/08/10 07:25:20;;;;;;;;;;;;;;;30.10;100.00;100164.31;5089435;28;19925;-83
2022/08/10 07:27:48;;;;;;;;;;;;;;;30.51;100.00;100160.13;5039681;28;19932;-83
2022/08/10 07:30:16;;;;;;;;;;;;;;;30.76;100.00;100161.03;5072905;28;19978;-83
2022/08/10 07:32:46;;;;;;;;;;;;;;;30.07;100.00;100162.44;5056255;28;20016;-83
2022/08/10 07:35:14;;;;;;;;;;;;;;;30.84;100.00;100159.13;5056630;28;19925;-83
2022/08/10 07:37:45;;;;;;;;;;;;;;;31.01;100.00;100153.97;5073193;28;20368;-83
2022/08/10 07:40:13;;;;;;;;;;;;;;;31.26;100.00;100158.47;5039493;28;20298;-83
2022/08/10 07:42:41;;;;;;;;;;;;;;;32.14;100.00;100154.56;5072506;28;20439;-83
2022/08/10 07:45:11;;;;;;;;;;;;;;;31.70;100.00;100155.13;5056479;28;19924;-84
2022/08/10 07:47:43;;;;;;;;;;;;;;;32.16;100.00;100157.69;5039644;28;19924;-84
2022/08/10 07:50:11;;;;;;;;;;;;;;;32.47;100.00;100145.47;5056588;28;19936;-83
2022/08/10 07:52:39;;;;;;;;;;;;;;;32.08;100.00;100153.84;5039733;28;20335;-83
2022/08/10 07:55:09;;;;;;;;;;;;;;;31.40;100.00;100158.09;5077641;28;19935;-83
2022/08/10 07:57:37;;;;;;;;;;;;;;;32.43;100.00;100155.78;5076731;28;19924;-83
2022/08/10 08:00:10;;;;;;;;;;;;;;;33.21;100.00;100155.28;5076814;28;20333;-83
2022/08/10 08:02:47;;;;;;;;;;;;;;;33.49;100.00;100152.69;5077369;28;19931;-83
2022/08/10 08:05:15;;;;;;;;;;;;;;;33.84;100.00;100152.25;5078131;28;19929;-84
2022/08/10 08:07:44;;;;;;;;;;;;;;;34.27;100.00;100146.81;5076602;28;19931;-84
2022/08/10 08:10:12;;;;;;;;;;;;;;;34.28;100.00;100151.28;5076559;28;19924;-83
2022/08/10 08:12:39;;;;;;;;;;;;;;;34.66;100.00;100152.50;5059779;28;19976;-84
2022/08/10 08:15:08;;;;;;;;;;;;;;;34.24;100.00;100162.44;5060185;28;19932;-84
2022/08/10 08:17:36;;;;;;;;;;;;;;;34.64;100.00;100158.13;5076765;28;19978;-84
2022/08/10 08:20:03;;;;;;;;;;;;;;;34.58;100.00;100149.53;5076150;28;20029;-85
2022/08/10 08:22:30;;;;;;;;;;;;;;;34.51;100.00;100156.03;5076107;28;19924;-84
2022/08/10 08:24:59;;;;;;;;;;;;;;;33.53;100.00;100158.91;5059448;28;20011;-82
2022/08/10 08:27:27;;;;;;;;;;;;;;;34.33;100.00;100151.16;5059649;28;19928;-84
2022/08/10 08:29:54;;;;;;;;;;;;;;;34.99;100.00;100142.97;5092157;28;19929;-83
2022/08/10 08:32:24;;;;;;;;;;;;;;;35.39;100.00;100146.44;5058741;28;19925;-83
2022/08/10 08:34:53;;;;;;;;;;;;;;;35.54;100.00;100140.72;5058803;28;19925;-83
2022/08/10 08:37:21;;;;;;;;;;;;;;;35.95;100.00;100134.81;5058953;28;19925;-83
2022/08/10 08:39:49;;;;;;;;;;;;;;;36.13;100.00;100125.78;5059302;28;20062;-83
2022/08/10 08:42:25;;;;;;;;;;;;;;;35.90;100.00;100130.72;5077003;28;20063;-83
2022/08/10 08:45:12;;;;;;;;;;;;;;;36.01;100.00;100127.47;5075835;28;20294;-83
2022/08/10 08:47:58;;;;;;;;;;;;;;;35.97;100.00;100129.97;5059027;28;19931;-83
2022/08/10 08:50:44;;;;;;;;;;;;;;;36.18;100.00;100127.75;5076283;28;19928;-83
2022/08/10 08:53:27;;;;;;;;;;;;;;;36.19;100.00;100128.50;5059103;28;19978;-83
2022/08/10 08:55:54;;;;;;;;;;;;;;;33.51;100.00;100141.31;5075754;28;19931;-84
2022/08/10 08:58:27;;;;;;;;;;;;;;;34.49;100.00;100128.94;5075324;28;19959;-83
2022/08/10 09:01:13;;;;;;;;;;;;;;;35.13;100.00;100117.53;5075698;28;19926;-83
2022/08/10 09:04:02;;;;;;;;;;;;;;;35.89;100.00;100114.63;5075674;28;19967;-84
2022/08/10 09:06:41;;;;;;;;;;;;;;;35.42;100.00;100122.84;5057980;28;19924;-83
2022/08/10 09:09:27;;;;;;;;;;;;;;;33.61;100.00;100130.84;5092232;28;20295;-83
2022/08/10 09:12:15;;;;;;;;;;;;;;;33.29;100.00;100121.44;5076627;28;19932;-83
2022/08/10 09:15:00;;;;;;;;;;;;;;;30.87;100.00;100129.97;5042261;28;19931;-83
2022/08/10 09:17:57;;;;;;;;;;;;;;;30.51;100.00;100124.72;5075545;28;19925;-82
2022/08/10 09:20:43;;;;;;;;;;;;;;;28.95;100.00;100138.13;5067858;28;19928;-82
2022/08/10 09:23:23;;;;;;;;;;;;;;;29.39;100.00;100126.56;5076191;28;19932;-82
2022/08/10 09:25:52;;;;;;;;;;;;;;;30.60;100.00;100118.63;5075079;28;20287;-82
2022/08/10 09:28:26;;;;;;;;;;;;;;;31.76;100.00;100115.41;5040872;28;19925;-82
2022/08/10 09:31:05;;;;;;;;;;;;;;;32.87;100.00;100121.13;5040933;28;20019;-83
2022/08/10 09:33:54;;;;;;;;;;;;;;;33.05;100.00;100108.69;5043220;28;19929;-83
2022/08/10 09:36:40;;;;;;;;;;;;;;;32.84;100.00;100110.63;5074988;28;20383;-83
2022/08/10 09:39:26;;;;;;;;;;;;;;;32.45;100.00;100112.59;5075499;28;19925;-83
2022/08/10 09:42:12;;;;;;;;;;;;;;;32.48;100.00;100106.50;5041144;28;20324;-82
2022/08/10 09:44:45;;;;;;;;;;;;;;;32.90;100.00;100114.25;5025443;28;19924;-83
2022/08/10 09:47:31;;;;;;;;;;;;;;;31.79;100.00;100111.41;5058580;28;19924;-83
2022/08/10 09:49:59;;;;;;;;;;;;;;;31.26;100.00;100100.72;5041870;28;19924;-82
2022/08/10 09:52:48;;;;;;;;;;;;;;;31.67;100.00;100107.09;5057802;28;19925;-80
2022/08/10 09:55:34;;;;;;;;;;;;;;;32.39;100.00;100098.25;5024818;28;19925;-80
2022/08/10 09:58:20;;;;;;;;;;;;;;;32.31;100.00;100094.38;5041540;28;20007;-80
2022/08/10 10:00:54;;;;;;;;;;;;;;;31.93;100.00;100095.72;5057954;28;19932;-80
2022/08/10 10:03:34;;;;;;;;;;;;;;;31.85;100.00;100100.59;5040663;28;19928;-80
2022/08/10 10:06:15;;;;;;;;;;;;;;;31.81;100.00;100093.53;5040992;28;19931;-81
2022/08/10 10:09:01;;;;;;;;;;;;;;;31.94;100.00;100093.63;5075755;28;20267;-81
2022/08/10 10:11:38;;;;;;;;;;;;;;;31.39;100.00;100092.19;5057795;28;20009;-82
2022/08/10 10:14:20;;;;;;;;;;;;;;;30.31;100.00;100093.44;5041573;28;20318;-82
2022/08/10 10:17:06;;;;;;;;;;;;;;;30.10;100.00;100086.50;5057668;28;19978;-81
2022/08/10 10:19:47;;;;;;;;;;;;;;;29.92;100.00;100087.09;5040775;28;20404;-81
2022/08/10 10:22:20;;;;;;;;;;;;;;;30.25;100.00;100087.69;5075091;28;19929;-81
2022/08/10 10:25:06;;;;;;;;;;;;;;;30.66;100.00;100094.19;5057453;28;20299;-81
2022/08/10 10:27:33;;;;;;;;;;;;;;;30.59;100.00;100079.59;5057514;28;20015;-81
2022/08/10 10:30:10;;;;;;;;;;;;;;;30.36;100.00;100083.97;5057332;28;19924;-80
2022/08/10 10:32:44;;;;;;;;;;;;;;;31.15;100.00;100086.41;5024352;28;20359;-81
2022/08/10 10:35:18;;;;;;;;;;;;;;;31.17;100.00;100069.34;5075316;28;20342;-81
2022/08/10 10:37:47;;;;;;;;;;;;;;;30.98;100.00;100071.38;5057482;28;20017;-81
2022/08/10 10:40:15;;;;;;;;;;;;;;;30.65;100.00;100074.53;5057451;28;19975;-82
2022/08/10 10:42:48;;;;;;;;;;;;;;;30.35;100.00;100074.53;5057066;28;19924;-82
2022/08/10 10:45:24;;;;;;;;;;;;;;;30.55;100.00;100076.22;5057267;28;19931;-82
2022/08/10 10:48:01;;;;;;;;;;;;;;;30.91;100.00;100074.88;5030209;28;19925;-82
2022/08/10 10:50:47;;;;;;;;;;;;;;;30.59;100.00;100068.03;5027623;28;20415;-82
2022/08/10 10:53:20;;;;;;;;;;;;;;;30.15;100.00;100068.34;5056765;28;19979;-82
2022/08/10 10:55:49;;;;;;;;;;;;;;;30.43;100.00;100060.31;5074584;28;19925;-82
2022/08/10 10:58:29;;;;;;;;;;;;;;;30.61;100.00;100051.00;5040474;28;20053;-82
2022/08/10 11:00:59;;;;;;;;;;;;;;;30.33;100.00;100059.06;5057222;28;19931;-82
2022/08/10 11:03:32;;;;;;;;;;;;;;;30.85;100.00;100059.72;5057116;28;20407;-82
2022/08/10 11:06:08;;;;;;;;;;;;;;;30.12;100.00;100057.91;5056916;28;19924;-82
2022/08/10 11:08:39;;;;;;;;;;;;;;;30.69;100.00;100046.19;5040173;28;19970;-82
2022/08/10 11:11:19;;;;;;;;;;;;;;;31.12;100.00;100049.97;5040050;28;20285;-82
2022/08/10 11:13:56;;;;;;;;;;;;;;;31.66;100.00;100049.88;5056690;28;19924;-82
2022/08/10 11:16:28;;;;;;;;;;;;;;;31.58;100.00;100046.81;5057237;28;19924;-82
2022/08/10 11:18:56;;;;;;;;;;;;;;;31.81;100.00;100039.41;5074579;28;19924;-82
2022/08/10 11:21:23;;;;;;;;;;;;;;;31.82;100.00;100038.13;5040104;28;19924;-82
2022/08/10 11:24:09;;;;;;;;;;;;;;;31.97;100.00;100031.84;5056144;28;19924;-82
2022/08/10 11:26:55;;;;;;;;;;;;;;;31.64;100.00;100038.88;5073703;28;20426;-82
2022/08/10 11:30:01;;;;;;;;;;;;;;;31.68;100.00;100027.75;5058723;28;19924;-82
2022/08/10 11:32:47;;;;;;;;;;;;;;;31.98;100.00;100033.41;5015590;28;20007;-83
2022/08/10 11:35:46;;;;;;;;;;;;;;;31.69;100.00;100035.09;5015566;28;19936;-82
2022/08/10 11:38:31;;;;;;;;;;;;;;;31.24;100.00;100028.31;5000531;28;19972;-83
2022/08/10 11:41:08;;;;;;;;;;;;;;;31.49;100.00;100038.50;5015494;28;20035;-82
2022/08/10 11:43:44;;;;;;;;;;;;;;;30.97;100.00;100043.84;4999607;28;19925;-82
2022/08/10 11:46:17;;;;;;;;;;;;;;;31.60;100.00;100038.38;5000201;28;19932;-82
2022/08/10 11:49:00;;;;;;;;;;;;;;;31.77;100.00;100032.38;5016241;28;19936;-83
2022/08/10 11:51:49;;;;;;;;;;;;;;;31.27;100.00;100033.78;4982656;28;19925;-83
2022/08/10 11:54:19;;;;;;;;;;;;;;;31.04;100.00;100026.72;4989594;28;19931;-83
2022/08/10 11:56:49;;;;;;;;;;;;;;;31.57;100.00;100025.03;5015510;28;19932;-82
2022/08/10 12:02:05;;;;;;;;;;;;;;;31.63;100.00;100019.94;5031762;28;20431;-83
2022/08/10 12:04:39;;;;;;;;;;;;;;;31.52;100.00;100025.88;5073695;28;19931;-82
2022/08/10 12:07:08;;;;;;;;;;;;;;;30.25;100.00;100015.63;5039227;28;20409;-82
2022/08/10 12:09:36;;;;;;;;;;;;;;;30.03;100.00;100012.13;5056512;28;19925;-82
2022/08/10 12:12:05;;;;;;;;;;;;;;;30.57;100.00;100001.47;5055863;28;19931;-83
2022/08/10 12:14:51;;;;;;;;;;;;;;;29.83;100.00;100000.97;5056012;28;20059;-82
2022/08/10 12:17:27;;;;;;;;;;;;;;;31.31;100.00;100001.72;5072426;28;19925;-82
2022/08/10 12:20:03;;;;;;;;;;;;;;;30.98;100.00;100007.88;5089728;28;19990;-82
2022/08/10 12:22:54;;;;;;;;;;;;;;;30.24;100.00;100007.53;5071373;28;20421;-82
2022/08/10 12:25:30;;;;;;;;;;;;;;;31.55;100.00;100001.69;5073890;28;19932;-82
2022/08/10 12:28:01;;;;;;;;;;;;;;;30.97;100.00;100012.09;5039144;28;19932;-82
2022/08/10 12:30:31;;;;;;;;;;;;;;;31.91;100.00;99993.56;5039161;28;19960;-82
2022/08/10 12:33:01;;;;;;;;;;;;;;;31.81;100.00;100004.72;5055644;28;19924;-82
2022/08/10 12:35:47;;;;;;;;;;;;;;;31.28;100.00;99999.91;5073923;28;20014;-83
2022/08/10 12:38:46;;;;;;;;;;;;;;;31.10;100.00;99994.88;5040998;28;19924;-82
2022/08/10 12:41:19;;;;;;;;;;;;;;;31.38;100.00;99998.25;5057533;28;19924;-82
2022/08/10 12:43:52;;;;;;;;;;;;;;;30.71;100.00;99985.84;5042472;28;20368;-82
2022/08/10 12:46:40;;;;;;;;;;;;;;;30.94;100.00;99990.09;5059237;28;19929;-82
2022/08/10 12:49:13;;;;;;;;;;;;;;;31.39;100.00;99983.25;5077222;28;19925;-82
2022/08/10 12:51:45;;;;;;;;;;;;;;;31.82;100.00;99986.09;5059639;28;19924;-82
2022/08/10 12:54:16;;;;;;;;;;;;;;;32.13;100.00;99976.66;5077106;28;20260;-82
2022/08/10 12:56:46;;;;;;;;;;;;;;;31.52;100.00;99973.13;5059718;28;19979;-82